createdAt,value
2023-01-18T00:00:18.363Z,-5.08
2023-01-18T00:01:18.239Z,-5.02
2023-01-18T00:02:18.225Z,-5.09
2023-01-18T00:03:18.215Z,-5.06
2023-01-18T00:04:18.203Z,-5.13
2023-01-18T00:05:18.238Z,-5.05
2023-01-18T00:06:18.284Z,-5.20
2023-01-18T00:07:18.173Z,-5.13
2023-01-18T00:08:18.162Z,-5.11
2023-01-18T00:09:18.153Z,-5.13
2023-01-18T00:10:18.142Z,-5.13
2023-01-18T00:11:18.148Z,-5.08
2023-01-18T00:12:18.180Z,-5.05
2023-01-18T00:13:18.125Z,-5.09
2023-01-18T00:14:18.099Z,-5.17
2023-01-18T00:15:18.090Z,-5.06
2023-01-18T00:16:18.183Z,-5.08
2023-01-18T00:17:18.087Z,-5.11
2023-01-18T00:18:18.100Z,-5.12
2023-01-18T00:19:18.061Z,-5.11
2023-01-18T00:20:18.034Z,-5.13
2023-01-18T00:21:18.054Z,-5.45
2023-01-18T00:22:18.014Z,-5.33
2023-01-18T00:23:18.008Z,-5.35
2023-01-18T00:24:18.047Z,-5.46
2023-01-18T00:25:17.990Z,-5.49
2023-01-18T00:26:17.992Z,-5.46
2023-01-18T00:27:17.979Z,-5.55
2023-01-18T00:28:17.955Z,-5.57
2023-01-18T00:29:17.946Z,-5.51
2023-01-18T00:30:17.979Z,-5.41
2023-01-18T00:31:17.989Z,-5.41
2023-01-18T00:32:17.933Z,-5.35
2023-01-18T00:33:17.918Z,-5.41
2023-01-18T00:34:17.894Z,-5.62
2023-01-18T00:35:17.885Z,-5.62
2023-01-18T00:36:17.930Z,-5.62
2023-01-18T00:37:17.862Z,-5.62
2023-01-18T00:38:17.850Z,-5.67
2023-01-18T00:39:17.853Z,-5.66
2023-01-18T00:40:17.830Z,-5.77
2023-01-18T00:41:17.818Z,-5.78
2023-01-18T00:42:17.858Z,-5.73
2023-01-18T00:43:17.804Z,-5.78
2023-01-18T00:44:17.800Z,-5.69
2023-01-18T00:45:17.779Z,-5.62
2023-01-18T00:46:17.770Z,-5.41
2023-01-18T00:47:17.759Z,-5.42
2023-01-18T00:48:17.805Z,-5.55
2023-01-18T00:49:17.742Z,-5.62
2023-01-18T00:50:17.734Z,-5.63
2023-01-18T00:51:17.714Z,-5.73
2023-01-18T00:52:17.703Z,-5.77
2023-01-18T00:53:17.698Z,-5.91
2023-01-18T00:54:17.738Z,-5.84
2023-01-18T00:55:17.682Z,-5.80
2023-01-18T00:56:17.671Z,-5.84
2023-01-18T00:57:17.655Z,-5.80
2023-01-18T00:58:17.655Z,-5.70
2023-01-18T00:59:17.634Z,-5.70
2023-01-18T01:00:17.681Z,-5.75
2023-01-18T01:01:17.837Z,-5.78
2023-01-18T01:02:17.690Z,-5.78
2023-01-18T01:03:17.591Z,-5.75
2023-01-18T01:04:17.610Z,-5.60
2023-01-18T01:05:17.576Z,-5.81
2023-01-18T01:06:17.629Z,-5.80
2023-01-18T01:07:17.551Z,-5.82
2023-01-18T01:08:17.570Z,-5.78
2023-01-18T01:09:17.527Z,-5.73
2023-01-18T01:10:17.525Z,-5.91
2023-01-18T01:11:17.509Z,-5.88
2023-01-18T01:12:17.560Z,-5.80
2023-01-18T01:13:17.503Z,-5.96
2023-01-18T01:14:17.488Z,-6.00
2023-01-18T01:15:17.468Z,-5.99
2023-01-18T01:16:17.525Z,-5.98
2023-01-18T01:17:17.445Z,-5.90
2023-01-18T01:18:17.480Z,-5.96
2023-01-18T01:19:17.435Z,-5.92
2023-01-18T01:20:17.451Z,-5.92
2023-01-18T01:21:17.428Z,-5.92
2023-01-18T01:22:17.502Z,-5.92
2023-01-18T01:23:17.382Z,-6.05
2023-01-18T01:24:17.428Z,-6.10
2023-01-18T01:25:17.362Z,-6.05
2023-01-18T01:26:17.356Z,-6.02
2023-01-18T01:27:17.343Z,-5.98
2023-01-18T01:28:17.343Z,-6.09
2023-01-18T01:29:17.319Z,-6.16
2023-01-18T01:30:17.398Z,-5.95
2023-01-18T01:31:17.300Z,-6.00
2023-01-18T01:32:17.292Z,-6.10
2023-01-18T01:33:17.279Z,-6.05
2023-01-18T01:34:17.274Z,-6.02
2023-01-18T01:35:17.256Z,-6.14
2023-01-18T01:36:17.321Z,-5.96
2023-01-18T01:37:17.239Z,-6.16
2023-01-18T01:38:17.230Z,-6.08
2023-01-18T01:39:17.219Z,-6.17
2023-01-18T01:40:17.212Z,-6.09
2023-01-18T01:41:17.228Z,-6.02
2023-01-18T01:42:17.261Z,-6.05
2023-01-18T01:43:17.176Z,-5.98
2023-01-18T01:44:17.168Z,-6.13
2023-01-18T01:45:17.162Z,-6.08
2023-01-18T01:46:17.148Z,-5.99
2023-01-18T01:47:17.145Z,-6.16
2023-01-18T01:48:17.180Z,-6.16
2023-01-18T01:49:17.111Z,-6.08
2023-01-18T01:50:17.109Z,-6.16
2023-01-18T01:51:17.095Z,-6.00
2023-01-18T01:52:17.110Z,-6.03
2023-01-18T01:53:17.089Z,-5.98
2023-01-18T01:54:17.124Z,-5.88
2023-01-18T01:55:17.053Z,-5.85
2023-01-18T01:56:17.047Z,-5.99
2023-01-18T01:57:17.032Z,-5.82
2023-01-18T01:58:17.043Z,-5.99
2023-01-18T01:59:17.033Z,-5.91
2023-01-18T02:00:17.060Z,-5.91
2023-01-18T02:01:17.078Z,-5.87
2023-01-18T02:02:16.997Z,-5.87
2023-01-18T02:03:16.968Z,-5.92
2023-01-18T02:04:16.960Z,-5.98
2023-01-18T02:05:16.968Z,-5.95
2023-01-18T02:06:17.016Z,-6.02
2023-01-18T02:07:16.926Z,-5.90
2023-01-18T02:08:16.937Z,-6.02
2023-01-18T02:09:16.906Z,-5.96
2023-01-18T02:10:16.908Z,-5.98
2023-01-18T02:11:16.887Z,-6.02
2023-01-18T02:12:16.932Z,-6.06
2023-01-18T02:13:16.863Z,-5.98
2023-01-18T02:14:16.875Z,-5.99
2023-01-18T02:15:19.136Z,-6.00
2023-01-18T02:16:16.893Z,-5.96
2023-01-18T02:17:16.827Z,-5.87
2023-01-18T02:18:16.879Z,-6.03
2023-01-18T02:19:16.814Z,-6.13
2023-01-18T02:20:16.807Z,-5.99
2023-01-18T02:21:16.794Z,-6.08
2023-01-18T02:22:16.782Z,-5.90
2023-01-18T02:23:16.760Z,-5.90
2023-01-18T02:24:16.800Z,-5.92
2023-01-18T02:25:16.752Z,-5.92
2023-01-18T02:26:16.732Z,-5.84
2023-01-18T02:27:16.718Z,-6.08
2023-01-18T02:28:16.711Z,-6.19
2023-01-18T02:29:16.708Z,-5.99
2023-01-18T02:30:16.708Z,-6.09
2023-01-18T02:31:16.682Z,-6.16
2023-01-18T02:32:16.668Z,-6.02
2023-01-18T02:33:16.659Z,-6.00
2023-01-18T02:34:16.651Z,-5.90
2023-01-18T02:35:16.646Z,-6.03
2023-01-18T02:36:16.638Z,-5.91
2023-01-18T02:37:16.623Z,-6.02
2023-01-18T02:38:16.608Z,-5.96
2023-01-18T02:39:16.604Z,-5.90
2023-01-18T02:40:16.615Z,-5.98
2023-01-18T02:41:16.587Z,-6.00
2023-01-18T02:42:16.568Z,-5.99
2023-01-18T02:43:16.552Z,-6.13
2023-01-18T02:44:16.555Z,-5.92
2023-01-18T02:45:16.532Z,-5.96
2023-01-18T02:46:16.589Z,-6.06
2023-01-18T02:47:16.527Z,-5.95
2023-01-18T02:48:16.522Z,-6.10
2023-01-18T02:49:16.490Z,-6.05
2023-01-18T02:50:24.017Z,-5.91
2023-01-18T02:51:23.992Z,-5.98
2023-01-18T02:52:16.467Z,-5.90
2023-01-18T02:53:16.453Z,-5.92
2023-01-18T02:54:16.452Z,-5.87
2023-01-18T02:55:16.430Z,-6.02
2023-01-18T02:56:16.450Z,-6.03
2023-01-18T02:57:16.412Z,-5.95
2023-01-18T02:58:16.400Z,-6.00
2023-01-18T02:59:16.402Z,-5.88
2023-01-18T03:00:16.392Z,-5.98
2023-01-18T03:01:16.604Z,-5.99
2023-01-18T03:02:16.411Z,-5.81
2023-01-18T03:03:16.345Z,-5.84
2023-01-18T03:04:16.350Z,-5.77
2023-01-18T03:05:16.327Z,-5.82
2023-01-18T03:06:16.334Z,-5.81
2023-01-18T03:07:16.305Z,-5.91
2023-01-18T03:08:16.301Z,-5.77
2023-01-18T03:09:16.294Z,-5.78
2023-01-18T03:10:16.285Z,-5.75
2023-01-18T03:11:16.262Z,-5.81
2023-01-18T03:12:16.279Z,-5.67
2023-01-18T03:13:16.244Z,-5.87
2023-01-18T03:14:16.235Z,-5.77
2023-01-18T03:15:16.328Z,-5.69
2023-01-18T03:16:16.227Z,-5.71
2023-01-18T03:17:16.202Z,-5.59
2023-01-18T03:18:16.196Z,-5.70
2023-01-18T03:19:16.185Z,-5.66
2023-01-18T03:20:16.175Z,-5.62
2023-01-18T03:21:16.174Z,-5.73
2023-01-18T03:22:16.164Z,-5.62
2023-01-18T03:23:16.141Z,-5.70
2023-01-18T03:24:16.127Z,-5.69
2023-01-18T03:25:16.119Z,-5.77
2023-01-18T03:26:16.111Z,-5.71
2023-01-18T03:27:16.110Z,-5.60
2023-01-18T03:28:16.147Z,-5.71
2023-01-18T03:29:16.086Z,-5.90
2023-01-18T03:30:16.081Z,-5.99
2023-01-18T03:31:16.143Z,-6.08
2023-01-18T03:32:16.056Z,-6.19
2023-01-18T03:33:16.041Z,-6.24
2023-01-18T03:34:16.036Z,-6.16
2023-01-18T03:35:16.018Z,-6.31
2023-01-18T03:36:16.007Z,-6.09
2023-01-18T03:37:16.000Z,-6.09
2023-01-18T03:38:15.994Z,-6.14
2023-01-18T03:39:15.980Z,-6.19
2023-01-18T03:40:15.969Z,-5.98
2023-01-18T03:41:15.953Z,-6.09
2023-01-18T03:42:15.946Z,-6.05
2023-01-18T03:43:15.948Z,-6.00
2023-01-18T03:44:15.956Z,-5.91
2023-01-18T03:45:15.914Z,-5.99
2023-01-18T03:46:15.947Z,-5.90
2023-01-18T03:47:15.903Z,-5.96
2023-01-18T03:48:15.887Z,-5.98
2023-01-18T03:49:15.882Z,-5.91
2023-01-18T03:50:15.859Z,-5.78
2023-01-18T03:51:15.869Z,-5.63
2023-01-18T03:52:15.847Z,-5.66
2023-01-18T03:53:15.830Z,-5.87
2023-01-18T03:54:15.820Z,-5.70
2023-01-18T03:55:15.808Z,-5.78
2023-01-18T03:56:16.011Z,-5.95
2023-01-18T03:57:15.805Z,-5.82
2023-01-18T03:58:15.793Z,-5.91
2023-01-18T03:59:15.772Z,-5.88
2023-01-18T04:00:15.772Z,-5.77
2023-01-18T04:01:15.959Z,-5.80
2023-01-18T04:02:15.732Z,-5.82
2023-01-18T04:03:15.801Z,-5.64
2023-01-18T04:04:15.739Z,-5.70
2023-01-18T04:05:15.781Z,-5.67
2023-01-18T04:06:15.692Z,-5.66
2023-01-18T04:07:15.688Z,-5.82
2023-01-18T04:08:15.669Z,-5.66
2023-01-18T04:09:15.663Z,-5.63
2023-01-18T04:10:15.665Z,-5.57
2023-01-18T04:11:15.655Z,-5.46
2023-01-18T04:12:15.636Z,-5.43
2023-01-18T04:13:15.624Z,-5.53
2023-01-18T04:14:15.610Z,-5.52
2023-01-18T04:15:15.605Z,-5.66
2023-01-18T04:16:15.713Z,-5.59
2023-01-18T04:17:15.598Z,-5.73
2023-01-18T04:18:15.573Z,-5.69
2023-01-18T04:19:15.564Z,-5.57
2023-01-18T04:20:15.546Z,-5.67
2023-01-18T04:21:15.560Z,-5.67
2023-01-18T04:22:15.554Z,-5.46
2023-01-18T04:23:15.519Z,-5.62
2023-01-18T04:24:15.516Z,-5.55
2023-01-18T04:25:15.529Z,-5.55
2023-01-18T04:26:15.485Z,-5.62
2023-01-18T04:27:15.502Z,-5.55
2023-01-18T04:28:15.477Z,-5.69
2023-01-18T04:29:15.461Z,-5.64
2023-01-18T04:30:15.461Z,-5.71
2023-01-18T04:31:15.471Z,-5.66
2023-01-18T04:32:15.444Z,-5.81
2023-01-18T04:33:15.535Z,-5.78
2023-01-18T04:34:15.412Z,-5.77
2023-01-18T04:35:15.401Z,-5.82
2023-01-18T04:36:15.388Z,-5.73
2023-01-18T04:37:15.373Z,-5.88
2023-01-18T04:38:15.364Z,-5.75
2023-01-18T04:39:15.377Z,-5.55
2023-01-18T04:40:15.348Z,-5.71
2023-01-18T04:41:15.333Z,-5.70
2023-01-18T04:42:15.318Z,-5.75
2023-01-18T04:43:15.412Z,-5.75
2023-01-18T04:44:15.298Z,-5.62
2023-01-18T04:45:15.296Z,-5.66
2023-01-18T04:46:15.384Z,-5.70
2023-01-18T04:47:15.276Z,-5.53
2023-01-18T04:48:15.301Z,-5.53
2023-01-18T04:49:15.371Z,-5.52
2023-01-18T04:50:15.234Z,-5.63
2023-01-18T04:51:15.231Z,-5.48
2023-01-18T04:52:15.231Z,-5.48
2023-01-18T04:53:15.205Z,-5.46
2023-01-18T04:54:15.202Z,-5.51
2023-01-18T04:55:15.213Z,-5.45
2023-01-18T04:56:15.178Z,-5.62
2023-01-18T04:57:15.168Z,-5.59
2023-01-18T04:58:15.174Z,-5.57
2023-01-18T04:59:15.155Z,-5.57
2023-01-18T05:00:15.137Z,-5.64
2023-01-18T05:01:15.294Z,-5.57
2023-01-18T05:02:15.361Z,-5.60
2023-01-18T05:03:15.102Z,-5.60
2023-01-18T05:04:15.117Z,-5.59
2023-01-18T05:05:15.106Z,-5.63
2023-01-18T05:06:15.083Z,-5.53
2023-01-18T05:07:15.062Z,-5.59
2023-01-18T05:08:15.050Z,-5.57
2023-01-18T05:09:15.040Z,-5.55
2023-01-18T05:10:15.054Z,-5.42
2023-01-18T05:11:15.026Z,-5.49
2023-01-18T05:12:15.029Z,-5.43
2023-01-18T05:13:14.999Z,-5.55
2023-01-18T05:14:14.989Z,-5.51
2023-01-18T05:15:14.979Z,-5.45
2023-01-18T05:16:15.024Z,-5.41
2023-01-18T05:17:14.960Z,-5.34
2023-01-18T05:18:14.961Z,-5.28
2023-01-18T05:19:14.936Z,-5.27
2023-01-18T05:20:14.945Z,-5.20
2023-01-18T05:21:14.917Z,-5.43
2023-01-18T05:22:14.921Z,-5.16
2023-01-18T05:23:14.909Z,-5.24
2023-01-18T05:24:14.883Z,-5.28
2023-01-18T05:25:14.884Z,-5.13
2023-01-18T05:26:14.875Z,-5.24
2023-01-18T05:27:14.855Z,-5.24
2023-01-18T05:28:14.856Z,-5.16
2023-01-18T05:29:14.848Z,-5.17
2023-01-18T05:30:14.818Z,-5.13
2023-01-18T05:31:14.922Z,-4.94
2023-01-18T05:32:14.815Z,-5.09
2023-01-18T05:33:14.794Z,-5.01
2023-01-18T05:34:14.799Z,-5.11
2023-01-18T05:35:14.870Z,-5.05
2023-01-18T05:36:14.774Z,-4.90
2023-01-18T05:37:14.770Z,-5.06
2023-01-18T05:38:14.734Z,-5.13
2023-01-18T05:39:14.745Z,-5.09
2023-01-18T05:40:14.734Z,-5.20
2023-01-18T05:41:14.723Z,-5.13
2023-01-18T05:42:14.697Z,-5.30
2023-01-18T05:43:14.686Z,-5.25
2023-01-18T05:44:14.685Z,-5.25
2023-01-18T05:45:14.666Z,-5.38
2023-01-18T05:46:14.688Z,-5.39
2023-01-18T05:47:14.658Z,-5.25
2023-01-18T05:48:14.634Z,-5.20
2023-01-18T05:49:14.620Z,-5.30
2023-01-18T05:50:14.608Z,-5.43
2023-01-18T05:51:14.611Z,-5.31
2023-01-18T05:52:14.612Z,-5.41
2023-01-18T05:53:14.587Z,-5.45
2023-01-18T05:54:14.572Z,-5.49
2023-01-18T05:55:14.557Z,-5.49
2023-01-18T05:56:14.544Z,-5.55
2023-01-18T05:57:14.548Z,-5.45
2023-01-18T05:58:14.548Z,-5.60
2023-01-18T05:59:14.532Z,-5.52
2023-01-18T06:00:14.512Z,-5.53
2023-01-18T06:01:14.568Z,-5.46
2023-01-18T06:02:14.516Z,-5.60
2023-01-18T06:03:14.469Z,-5.55
2023-01-18T06:04:14.530Z,-5.51
2023-01-18T06:05:14.455Z,-5.35
2023-01-18T06:06:14.436Z,-5.38
2023-01-18T06:07:14.427Z,-5.30
2023-01-18T06:08:14.439Z,-5.43
2023-01-18T06:09:14.420Z,-5.35
2023-01-18T06:10:14.403Z,-5.25
2023-01-18T06:11:14.388Z,-5.38
2023-01-18T06:12:14.373Z,-5.52
2023-01-18T06:13:14.384Z,-5.31
2023-01-18T06:14:14.353Z,-5.39
2023-01-18T06:15:14.360Z,-5.52
2023-01-18T06:16:14.355Z,-5.57
2023-01-18T06:17:14.339Z,-5.53
2023-01-18T06:18:14.309Z,-5.55
2023-01-18T06:19:14.322Z,-5.59
2023-01-18T06:20:14.396Z,-5.53
2023-01-18T06:21:14.301Z,-5.49
2023-01-18T06:22:14.263Z,-5.49
2023-01-18T06:23:14.265Z,-5.34
2023-01-18T06:24:14.275Z,-5.46
2023-01-18T06:25:14.260Z,-5.52
2023-01-18T06:26:14.232Z,-5.67
2023-01-18T06:27:14.227Z,-5.62
2023-01-18T06:28:14.203Z,-5.60
2023-01-18T06:29:14.194Z,-5.69
2023-01-18T06:30:14.290Z,-5.51
2023-01-18T06:31:14.171Z,-5.77
2023-01-18T06:32:14.156Z,-5.75
2023-01-18T06:33:14.161Z,-5.70
2023-01-18T06:34:14.136Z,-5.57
2023-01-18T06:35:14.128Z,-5.57
2023-01-18T06:36:14.127Z,-5.70
2023-01-18T06:37:14.111Z,-5.57
2023-01-18T06:38:14.137Z,-5.69
2023-01-18T06:39:14.111Z,-5.78
2023-01-18T06:40:14.124Z,-5.82
2023-01-18T06:41:14.086Z,-5.87
2023-01-18T06:42:14.062Z,-5.88
2023-01-18T06:43:14.427Z,-5.98
2023-01-18T06:44:14.028Z,-5.88
2023-01-18T06:45:14.031Z,-6.05
2023-01-18T06:46:14.063Z,-5.87
2023-01-18T06:47:14.011Z,-5.99
2023-01-18T06:48:13.990Z,-5.96
2023-01-18T06:49:13.983Z,-6.09
2023-01-18T06:50:13.978Z,-6.08
2023-01-18T06:51:13.997Z,-6.26
2023-01-18T06:52:13.954Z,-6.31
2023-01-18T06:53:13.962Z,-6.19
2023-01-18T06:54:13.923Z,-6.27
2023-01-18T06:55:13.915Z,-6.41
2023-01-18T06:56:13.919Z,-6.45
2023-01-18T06:57:13.911Z,-6.47
2023-01-18T06:58:13.898Z,-6.37
2023-01-18T06:59:13.873Z,-6.31
2023-01-18T07:00:13.868Z,-6.27
2023-01-18T07:01:13.999Z,-6.17
2023-01-18T07:02:13.919Z,-6.31
2023-01-18T07:03:13.853Z,-6.14
2023-01-18T07:04:13.899Z,-6.21
2023-01-18T07:05:13.817Z,-6.23
2023-01-18T07:06:13.808Z,-6.19
2023-01-18T07:07:13.793Z,-6.19
2023-01-18T07:08:13.783Z,-6.23
2023-01-18T07:09:13.785Z,-6.16
2023-01-18T07:10:16.265Z,-6.26
2023-01-18T07:11:13.749Z,-6.16
2023-01-18T07:12:13.795Z,-6.08
2023-01-18T07:13:13.726Z,-6.03
2023-01-18T07:14:13.719Z,-6.06
2023-01-18T07:15:21.533Z,-6.23
2023-01-18T07:16:14.704Z,-6.10
2023-01-18T07:17:13.689Z,-6.13
2023-01-18T07:18:13.693Z,-6.09
2023-01-18T07:19:13.664Z,-6.09
2023-01-18T07:20:13.651Z,-6.02
2023-01-18T07:21:15.213Z,-6.14
2023-01-18T07:22:13.631Z,-6.17
2023-01-18T07:23:13.623Z,-6.23
2023-01-18T07:24:13.624Z,-6.23
2023-01-18T07:25:13.821Z,-6.37
2023-01-18T07:26:13.590Z,-6.29
2023-01-18T07:27:13.619Z,-6.23
2023-01-18T07:28:13.599Z,-6.17
2023-01-18T07:29:13.570Z,-6.17
2023-01-18T07:30:13.545Z,-6.03
2023-01-18T07:31:13.541Z,-6.13
2023-01-18T07:32:13.527Z,-6.05
2023-01-18T07:33:13.545Z,-6.10
2023-01-18T07:34:13.515Z,-6.10
2023-01-18T07:35:13.499Z,-6.16
2023-01-18T07:36:13.494Z,-5.99
2023-01-18T07:37:13.477Z,-6.13
2023-01-18T07:38:13.469Z,-5.91
2023-01-18T07:39:13.484Z,-6.03
2023-01-18T07:40:13.449Z,-5.95
2023-01-18T07:41:13.435Z,-5.98
2023-01-18T07:42:13.428Z,-5.98
2023-01-18T07:43:13.416Z,-5.88
2023-01-18T07:44:13.426Z,-5.95
2023-01-18T07:45:13.423Z,-6.05
2023-01-18T07:46:13.406Z,-5.87
2023-01-18T07:47:13.372Z,-5.88
2023-01-18T07:48:13.368Z,-5.92
2023-01-18T07:49:13.370Z,-5.87
2023-01-18T07:50:13.345Z,-5.73
2023-01-18T07:51:13.342Z,-5.84
2023-01-18T07:52:13.344Z,-5.95
2023-01-18T07:53:13.319Z,-5.81
2023-01-18T07:54:13.323Z,-5.88
2023-01-18T07:55:13.287Z,-5.88
2023-01-18T07:56:13.283Z,-6.05
2023-01-18T07:57:13.291Z,-5.82
2023-01-18T07:58:13.363Z,-5.99
2023-01-18T07:59:13.257Z,-5.78
2023-01-18T08:00:13.273Z,-5.85
2023-01-18T08:01:13.366Z,-5.85
2023-01-18T08:02:13.249Z,-5.99
2023-01-18T08:03:13.231Z,-5.95
2023-01-18T08:04:13.207Z,-5.92
2023-01-18T08:05:13.197Z,-5.88
2023-01-18T08:06:13.179Z,-5.91
2023-01-18T08:07:13.168Z,-5.85
2023-01-18T08:08:13.176Z,-5.85
2023-01-18T08:09:13.161Z,-5.85
2023-01-18T08:10:13.148Z,-5.75
2023-01-18T08:11:13.130Z,-5.96
2023-01-18T08:12:13.119Z,-5.62
2023-01-18T08:13:13.103Z,-5.70
2023-01-18T08:14:13.115Z,-5.88
2023-01-18T08:15:13.096Z,-5.87
2023-01-18T08:16:13.274Z,-5.91
2023-01-18T08:17:13.080Z,-5.78
2023-01-18T08:18:13.058Z,-5.85
2023-01-18T08:19:13.044Z,-5.70
2023-01-18T08:20:13.045Z,-5.70
2023-01-18T08:21:13.030Z,-5.70
2023-01-18T08:22:13.024Z,-5.73
2023-01-18T08:23:13.006Z,-5.67
2023-01-18T08:24:13.015Z,-5.69
2023-01-18T08:25:12.988Z,-5.67
2023-01-18T08:26:13.005Z,-5.63
2023-01-18T08:27:12.969Z,-5.60
2023-01-18T08:28:12.952Z,-5.48
2023-01-18T08:29:12.940Z,-5.69
2023-01-18T08:30:12.965Z,-5.60
2023-01-18T08:31:13.027Z,-5.57
2023-01-18T08:32:12.944Z,-5.59
2023-01-18T08:33:12.901Z,-5.59
2023-01-18T08:34:12.893Z,-5.63
2023-01-18T08:35:12.878Z,-5.49
2023-01-18T08:36:12.882Z,-5.67
2023-01-18T08:37:12.872Z,-5.49
2023-01-18T08:38:12.858Z,-5.52
2023-01-18T08:39:12.837Z,-5.57
2023-01-18T08:40:13.404Z,-5.46
2023-01-18T08:41:12.815Z,-5.49
2023-01-18T08:42:12.822Z,-5.55
2023-01-18T08:43:12.796Z,-5.45
2023-01-18T08:44:12.810Z,-5.62
2023-01-18T08:45:12.775Z,-5.49
2023-01-18T08:46:12.794Z,-5.52
2023-01-18T08:47:12.753Z,-5.42
2023-01-18T08:48:12.789Z,-5.38
2023-01-18T08:49:12.733Z,-5.42
2023-01-18T08:50:12.751Z,-5.30
2023-01-18T08:51:12.717Z,-5.48
2023-01-18T08:52:12.704Z,-5.49
2023-01-18T08:53:12.689Z,-5.49
2023-01-18T08:54:12.683Z,-5.60
2023-01-18T08:55:12.666Z,-5.51
2023-01-18T08:56:12.689Z,-5.59
2023-01-18T08:57:12.647Z,-5.51
2023-01-18T08:58:12.644Z,-5.69
2023-01-18T08:59:12.695Z,-5.59
2023-01-18T09:00:12.641Z,-5.52
2023-01-18T09:01:12.708Z,-5.48
2023-01-18T09:02:12.671Z,-5.39
2023-01-18T09:03:12.675Z,-5.27
2023-01-18T09:04:12.674Z,-5.39
2023-01-18T09:05:12.563Z,-5.42
2023-01-18T09:06:13.185Z,-5.31
2023-01-18T09:07:12.549Z,-5.24
2023-01-18T09:08:12.569Z,-5.33
2023-01-18T09:09:12.518Z,-5.31
2023-01-18T09:10:12.516Z,-5.35
2023-01-18T09:11:12.494Z,-5.43
2023-01-18T09:12:12.503Z,-5.34
2023-01-18T09:13:12.492Z,-5.64
2023-01-18T09:14:12.481Z,-5.64
2023-01-18T09:15:12.459Z,-5.57
2023-01-18T09:16:12.529Z,-5.49
2023-01-18T09:17:12.431Z,-5.53
2023-01-18T09:18:12.434Z,-5.41
2023-01-18T09:19:12.417Z,-5.38
2023-01-18T09:20:12.474Z,-5.28
2023-01-18T09:21:12.389Z,-5.30
2023-01-18T09:22:12.392Z,-5.38
2023-01-18T09:23:12.366Z,-5.42
2023-01-18T09:24:12.371Z,-5.46
2023-01-18T09:25:12.344Z,-5.38
2023-01-18T09:26:12.355Z,-5.30
2023-01-18T09:27:12.324Z,-5.42
2023-01-18T09:28:12.328Z,-5.52
2023-01-18T09:29:12.313Z,-5.49
2023-01-18T09:30:19.814Z,-5.42
2023-01-18T09:31:19.867Z,-5.23
2023-01-18T09:32:19.801Z,-5.25
2023-01-18T09:33:19.805Z,-5.27
2023-01-18T09:34:20.304Z,-5.24
2023-01-18T09:35:19.807Z,-5.16
2023-01-18T09:36:12.243Z,-5.11
2023-01-18T09:37:19.745Z,-5.11
2023-01-18T09:38:19.741Z,-5.13
2023-01-18T09:39:19.841Z,-4.90
2023-01-18T09:40:19.713Z,-4.72
2023-01-18T09:41:14.104Z,-4.45
2023-01-18T09:42:12.170Z,-4.31
2023-01-18T09:43:12.156Z,-4.04
2023-01-18T09:44:12.151Z,-3.70
2023-01-18T09:45:12.156Z,-2.93
2023-01-18T09:46:12.148Z,-2.40
2023-01-18T09:47:12.115Z,-1.82
2023-01-18T09:48:12.121Z,-1.54
2023-01-18T09:49:12.096Z,-1.43
2023-01-18T09:50:12.097Z,-1.20
2023-01-18T09:51:12.099Z,-1.46
2023-01-18T09:52:12.101Z,-1.44
2023-01-18T09:53:12.055Z,-1.08
2023-01-18T09:54:12.055Z,-0.89
2023-01-18T09:55:12.133Z,-0.45
2023-01-18T09:56:12.044Z,-0.24
2023-01-18T09:57:12.008Z,-0.12
2023-01-18T09:58:12.000Z,0.25
2023-01-18T09:59:11.989Z,0.26
2023-01-18T10:00:11.996Z,0.33
2023-01-18T10:01:12.148Z,0.23
2023-01-18T10:02:12.094Z,0.20
2023-01-18T10:03:11.962Z,0.31
2023-01-18T10:04:11.949Z,0.19
2023-01-18T10:05:11.955Z,0.05
2023-01-18T10:06:11.944Z,0.19
2023-01-18T10:07:11.939Z,-0.37
2023-01-18T10:08:11.900Z,-0.09
2023-01-18T10:09:11.882Z,0.02
2023-01-18T10:10:11.878Z,0.02
2023-01-18T10:11:11.869Z,0.70
2023-01-18T10:12:11.861Z,0.93
2023-01-18T10:13:11.844Z,1.24
2023-01-18T10:14:11.831Z,1.16
2023-01-18T10:15:11.860Z,1.14
2023-01-18T10:16:11.846Z,1.24
2023-01-18T10:17:11.798Z,1.32
2023-01-18T10:18:11.818Z,1.49
2023-01-18T10:19:11.775Z,1.31
2023-01-18T10:20:11.769Z,0.63
2023-01-18T10:21:11.753Z,0.43
2023-01-18T10:22:11.757Z,0.45
2023-01-18T10:23:11.796Z,-0.09
2023-01-18T10:24:11.724Z,-0.26
2023-01-18T10:25:11.711Z,0.67
2023-01-18T10:26:11.704Z,1.42
2023-01-18T10:27:11.704Z,1.77
2023-01-18T10:28:11.684Z,1.64
2023-01-18T10:29:11.707Z,1.57
2023-01-18T10:30:11.667Z,1.31
2023-01-18T10:31:11.689Z,1.38
2023-01-18T10:32:11.640Z,1.20
2023-01-18T10:33:11.635Z,0.95
2023-01-18T10:34:11.622Z,1.06
2023-01-18T10:35:11.681Z,0.75
2023-01-18T10:36:11.895Z,0.35
2023-01-18T10:37:11.582Z,0.30
2023-01-18T10:38:11.578Z,0.60
2023-01-18T10:39:11.596Z,0.05
2023-01-18T10:40:11.568Z,-0.13
2023-01-18T10:41:11.576Z,-0.83
2023-01-18T10:42:11.530Z,-1.29
2023-01-18T10:43:11.520Z,-1.44
2023-01-18T10:44:11.521Z,-1.38
2023-01-18T10:45:11.500Z,-1.64
2023-01-18T10:46:11.578Z,-1.86
2023-01-18T10:47:11.535Z,-2.01
2023-01-18T10:48:11.468Z,-2.07
2023-01-18T10:49:11.458Z,-1.59
2023-01-18T10:50:11.446Z,-0.78
2023-01-18T10:51:11.437Z,-0.67
2023-01-18T10:52:11.442Z,-0.47
2023-01-18T10:53:11.462Z,-0.01
2023-01-18T10:54:11.408Z,0.44
2023-01-18T10:55:11.415Z,0.26
2023-01-18T10:56:11.388Z,0.38
2023-01-18T10:57:11.371Z,0.67
2023-01-18T10:58:11.377Z,1.28
2023-01-18T10:59:11.373Z,1.46
2023-01-18T11:00:11.357Z,1.61
2023-01-18T11:01:11.449Z,1.57
2023-01-18T11:02:11.505Z,1.85
2023-01-18T11:03:11.335Z,1.93
2023-01-18T11:04:11.301Z,2.02
2023-01-18T11:05:11.336Z,1.60
2023-01-18T11:06:11.291Z,1.43
2023-01-18T11:07:11.281Z,1.11
2023-01-18T11:08:11.267Z,1.26
2023-01-18T11:09:11.244Z,1.63
2023-01-18T11:10:11.233Z,1.81
2023-01-18T11:11:11.296Z,2.14
2023-01-18T11:12:11.223Z,1.93
2023-01-18T11:13:11.198Z,1.95
2023-01-18T11:14:11.192Z,1.42
2023-01-18T11:15:11.175Z,1.07
2023-01-18T11:16:11.173Z,1.21
2023-01-18T11:17:11.227Z,1.50
2023-01-18T11:18:11.144Z,1.50
2023-01-18T11:19:11.133Z,0.95
2023-01-18T11:20:11.127Z,0.86
2023-01-18T11:21:11.108Z,0.98
2023-01-18T11:22:11.102Z,0.75
2023-01-18T11:23:11.146Z,-0.12
2023-01-18T11:24:11.081Z,-0.45
2023-01-18T11:25:11.062Z,-0.16
2023-01-18T11:26:11.057Z,-0.23
2023-01-18T11:27:11.101Z,0.64
2023-01-18T11:28:11.056Z,1.29
2023-01-18T11:29:11.078Z,1.50
2023-01-18T11:30:11.016Z,1.64
2023-01-18T11:31:11.002Z,1.42
2023-01-18T11:32:11.077Z,1.11
2023-01-18T11:33:10.994Z,1.07
2023-01-18T11:34:10.972Z,1.43
2023-01-18T11:35:10.961Z,1.56
2023-01-18T11:36:10.983Z,1.85
2023-01-18T11:37:10.967Z,1.67
2023-01-18T11:38:10.932Z,1.49
2023-01-18T11:39:10.914Z,1.44
2023-01-18T11:40:10.906Z,1.24
2023-01-18T11:41:10.913Z,1.21
2023-01-18T11:42:10.938Z,1.26
2023-01-18T11:43:10.887Z,1.24
2023-01-18T11:44:10.861Z,1.31
2023-01-18T11:45:10.846Z,1.54
2023-01-18T11:46:10.902Z,1.77
2023-01-18T11:47:10.840Z,1.82
2023-01-18T11:48:10.877Z,1.31
2023-01-18T11:49:10.803Z,0.81
2023-01-18T11:50:21.624Z,0.88
2023-01-18T11:51:11.790Z,1.31
2023-01-18T11:52:10.875Z,1.71
2023-01-18T11:53:10.777Z,2.15
2023-01-18T11:54:10.788Z,2.50
2023-01-18T11:55:10.736Z,2.33
2023-01-18T11:56:10.720Z,2.37
2023-01-18T11:57:10.711Z,2.68
2023-01-18T11:58:10.712Z,2.51
2023-01-18T11:59:10.806Z,2.66
2023-01-18T12:00:10.703Z,2.11
2023-01-18T12:01:10.745Z,2.00
2023-01-18T12:02:10.713Z,2.15
2023-01-18T12:03:10.738Z,2.09
2023-01-18T12:04:10.638Z,2.23
2023-01-18T12:05:10.624Z,2.19
2023-01-18T12:06:10.646Z,1.88
2023-01-18T12:07:10.604Z,1.60
2023-01-18T12:08:10.694Z,1.85
2023-01-18T12:09:10.670Z,2.18
2023-01-18T12:10:10.596Z,2.44
2023-01-18T12:11:10.593Z,2.40
2023-01-18T12:12:19.082Z,2.59
2023-01-18T12:13:11.555Z,2.55
2023-01-18T12:14:10.527Z,2.29
2023-01-18T12:15:10.562Z,2.27
2023-01-18T12:16:10.636Z,2.04
2023-01-18T12:17:10.496Z,2.74
2023-01-18T12:18:14.088Z,2.69
2023-01-18T12:19:10.495Z,2.22
2023-01-18T12:20:10.457Z,2.44
2023-01-18T12:21:10.456Z,2.33
2023-01-18T12:22:10.436Z,1.71
2023-01-18T12:23:10.429Z,1.57
2023-01-18T12:24:10.446Z,1.65
2023-01-18T12:25:10.434Z,1.34
2023-01-18T12:26:12.627Z,1.44
2023-01-18T12:27:10.402Z,2.07
2023-01-18T12:28:10.376Z,2.14
2023-01-18T12:29:10.373Z,2.37
2023-01-18T12:30:13.705Z,2.41
2023-01-18T12:31:10.452Z,2.14
2023-01-18T12:32:10.331Z,1.70
2023-01-18T12:33:10.320Z,1.04
2023-01-18T12:34:10.318Z,0.59
2023-01-18T12:35:23.325Z,0.62
2023-01-18T12:36:11.339Z,0.49
2023-01-18T12:37:10.277Z,0.40
2023-01-18T12:38:13.365Z,0.15
2023-01-18T12:39:17.778Z,0.04
2023-01-18T12:40:10.240Z,-0.21
2023-01-18T12:41:10.242Z,-0.26
2023-01-18T12:42:10.221Z,-0.47
2023-01-18T12:43:17.733Z,-0.59
2023-01-18T12:44:17.719Z,-0.59
2023-01-18T12:45:10.189Z,-0.68
2023-01-18T12:46:17.824Z,-0.89
2023-01-18T12:47:17.688Z,-0.81
2023-01-18T12:48:10.158Z,-0.86
2023-01-18T12:49:17.665Z,-1.00
2023-01-18T12:50:10.131Z,-0.95
2023-01-18T12:51:10.123Z,-0.97
2023-01-18T12:52:18.517Z,-0.86
2023-01-18T12:53:11.106Z,-1.07
2023-01-18T12:54:10.109Z,-0.95
2023-01-18T12:55:10.080Z,-1.13
2023-01-18T12:56:10.078Z,-1.00
2023-01-18T12:57:10.060Z,-1.03